Nearby METAR Reports

 

KLXT - Lees Summit Muni, Missouri, USA
Distance from station: E 5mi, 9km
Updated: Wed, 26-Nov-2014 1:01pm CST
Overcast
Overcast
 Wind from NW
Wind: NW 26 mph , 43 km/h, Gust: 33 mph , 54 km/h
Temperature: 39°F , 4°C
Wind Chill: 28°F , -2°C
Dew Point: 30°F , -1°C
Humidity: 70%
Barometer: 30.01 inHg , 1016.3 hPa
Clouds: Overcast
Visibility: 10 miles , 16 km
Cloud details: Overcast 3000 ft
2014/11/26 19:01 KLXT 261901Z AUTO 31023G29KT 10SM OVC030 04/M01 A3001 RMK AO2 PK WND 32029/1855 T00441011 TSNO
KMKC - Kansas City/Dntn, Missouri, USA
Distance from station: NW 12mi, 19km
Updated: Wed, 26-Nov-2014 12:54pm CST
Overcast
Overcast
 Wind from NW
Wind: NW 14 mph , 22 km/h, Gust: 24 mph , 39 km/h
Temperature: 41°F , 5°C
Wind Chill: 33°F , 1°C
Dew Point: 30°F , -1°C
Humidity: 66%
Barometer: 30.02 inHg , 1016.6 hPa
Clouds: Overcast
Visibility: 10 miles , 16 km
Cloud details: Overcast 2900 ft
2014/11/26 18:54 KMKC 261854Z 32012G21KT 10SM OVC029 05/M01 A3002 RMK AO2 PK WND 31027/1837 RAB1755E51 SLP168 P0000 T00501011
 
KIXD - Olathe/Industria, Kansas, USA
Distance from station: WSW 25mi, 41km
Updated: Wed, 26-Nov-2014 12:53pm CST
Mostly cloudy
Mostly cloudy
 Wind from WNW
Wind: WNW 24 mph , 39 km/h, Gust: 30 mph , 48 km/h
Temperature: 41°F , 5°C
Wind Chill: 31°F , -1°C
Dew Point: 28°F , -2°C
Humidity: 61%
Barometer: 30.03 inHg , 1016.9 hPa
Clouds: Mostly cloudy
Visibility: 10 miles , 16 km
Cloud details: Mostly cloudy 3900 ft
2014/11/26 18:53 KIXD 261853Z 30021G26KT 10SM BKN039 05/M02 A3003 RMK AO2 PK WND 32029/1834 SLP174 T00501022
KMCI - Kansas City/Intl, Missouri, USA
Distance from station: NW 26mi, 42km
Updated: Wed, 26-Nov-2014 12:53pm CST
Overcast
Overcast
 Wind from WNW
Wind: WNW 16 mph , 26 km/h, Gust: 30 mph , 48 km/h
Temperature: 37°F , 3°C
Wind Chill: 28°F , -2°C
Dew Point: 30°F , -1°C
Humidity: 75%
Barometer: 30.02 inHg , 1016.6 hPa
Clouds: Overcast
Visibility: 10 miles , 16 km
Cloud details: Overcast 2200 ft
2014/11/26 18:53 KMCI 261853Z 30014G26KT 10SM OVC022 03/M01 A3002 RMK AO2 PK WND 31029/1838 SLP170 T00331011
 
KRCM - Warrensburg Skyh, Missouri, USA
Distance from station: ESE 38mi, 62km
Updated: Wed, 26-Nov-2014 1:35pm CST
Overcast
Overcast
 Wind from W
Wind: W 13 mph , 20 km/h, Gust: 22 mph , 35 km/h
Temperature: 41°F , 5°C
Wind Chill: 34°F , 1°C
Dew Point: 32°F , 0°C
Humidity: 70%
Barometer: 30.00 inHg , 1015.9 hPa
Clouds: Overcast
Visibility: 10 miles , 16 km
Cloud details: Mostly cloudy 2700 ft
Overcast 3200 ft
2014/11/26 19:35 KRCM 261935Z AUTO 28011G19KT 10SM BKN027 OVC032 05/00 A3000 RMK AO2
KLWC - Lawrence, Kansas, USA
Distance from station: W 40mi, 65km
Updated: Wed, 26-Nov-2014 12:52pm CST
Overcast
Overcast
 Wind from NW
Wind: NW 24 mph , 39 km/h, Gust: 29 mph , 46 km/h
Temperature: 41°F , 5°C
Wind Chill: 31°F , -1°C
Dew Point: 28°F , -2°C
Humidity: 61%
Barometer: 30.07 inHg , 1018.3 hPa
Clouds: Overcast
Visibility: 10 miles , 16 km
Cloud details: Overcast 3500 ft
2014/11/26 18:52 KLWC 261852Z AUTO 31021G25KT 10SM OVC035 05/M02 A3007 RMK AO2 PK WND 32030/1842 SLP186 T00501022
 
KSZL - Whiteman Afb, Missouri, USA
Distance from station: ESE 53mi, 86km
Updated: Wed, 26-Nov-2014 12:58pm CST
Overcast
Overcast
 Wind from NW
Wind: NW 13 mph , 20 km/h, Gust: 21 mph , 33 km/h
Temperature: 41°F , 5°C
Wind Chill: 34°F , 1°C
Dew Point: 32°F , 0°C
Humidity: 70%
Barometer: 29.98 inHg , 1015.2 hPa
Clouds: Overcast
Visibility: 10 miles , 16 km
Cloud details: Overcast 2700 ft
2014/11/26 18:58 KSZL 261858Z 31011G18KT 10SM OVC027 05/00 A2998 RMK AO2A SLP160 P0000 T00520004 $
KSTJ - St. Joseph, Missouri, USA
Distance from station: NNW 59mi, 95km
Updated: Wed, 26-Nov-2014 1:24pm CST
Overcast
Overcast
 Wind from NW
Wind: NW 18 mph , 30 km/h, Gust: 28 mph , 44 km/h
Temperature: 36°F , 2°C
Wind Chill: 26°F , -3°C
Dew Point: 30°F , -1°C
Humidity: 81%
Barometer: 30.04 inHg , 1017.3 hPa
Clouds: Overcast
Visibility: 10 miles , 16 km
Cloud details: Overcast 1600 ft
2014/11/26 19:24 KSTJ 261924Z 31016G24KT 10SM OVC016 02/M01 A3004 RMK AO2 PK WND 31028/1855 T00221011
 
KGLY - Clinton, Missouri, USA
Distance from station: SE 61mi, 98km
Updated: Wed, 26-Nov-2014 1:35pm CST
Mostly cloudy
Mostly cloudy
 Wind from NW
Wind: NW 15 mph , 24 km/h, Gust: 21 mph , 33 km/h
Temperature: 43°F , 6°C
Wind Chill: 36°F , 2°C
Dew Point: 32°F , 0°C
Humidity: 66%
Barometer: 30.02 inHg , 1016.6 hPa
Clouds: Mostly cloudy
Visibility: 10 miles , 16 km
Cloud details: Mostly cloudy 3400 ft
Mostly cloudy 4000 ft
2014/11/26 19:35 KGLY 261935Z AUTO 31013G18KT 10SM BKN034 BKN040 06/00 A3002 RMK AO2
KFOE - Topeka/Forbes, Kansas, USA
Distance from station: W 64mi, 103km
Updated: Wed, 26-Nov-2014 1:29pm CST
Mostly cloudy
Mostly cloudy
 Wind from NW
Wind: NW 26 mph , 43 km/h, Gust: 35 mph , 56 km/h
Temperature: 39°F , 4°C
Wind Chill: 28°F , -2°C
Dew Point: 27°F , -3°C
Humidity: 61%
Barometer: 30.10 inHg , 1019.3 hPa
Clouds: Mostly cloudy
Visibility: 10 miles , 16 km
Cloud details: Mostly cloudy 2800 ft
2014/11/26 19:29 KFOE 261929Z 31023G30KT 10SM BKN028 04/M03 A3010 RMK AO2 PK WND 31032/1912 T00441028
 
KDMO - Sedalia, Missouri, USA
Distance from station: ESE 72mi, 116km
Updated: Wed, 26-Nov-2014 1:33pm CST
Overcast
Overcast
 Wind from WNW
Wind: WNW 18 mph , 30 km/h, Gust: 25 mph , 41 km/h
Temperature: 43°F , 6°C
Wind Chill: 35°F , 2°C
Dew Point: 30°F , -1°C
Humidity: 61%
Barometer: 29.98 inHg , 1015.2 hPa
Clouds: Overcast
Visibility: 10 miles , 16 km
Cloud details: Mostly cloudy 2700 ft
Overcast 3600 ft
2014/11/26 19:33 KDMO 261933Z AUTO 30016G22KT 10SM BKN027 OVC036 06/M01 A2998 RMK AO2 T00561006
KCDJ - Chillicothe, Missouri, USA
Distance from station: NE 74mi, 120km
Updated: Wed, 26-Nov-2014 12:52pm CST

 Wind from NW
Wind: NW 10 mph , 17 km/h, Gust: 20 mph , 31 km/h
Temperature: 39°F , 4°C
Wind Chill: 32°F , 0°C
Dew Point: 34°F , 1°C
Humidity: 81%
Barometer: 29.95 inHg , 1014.2 hPa
2014/11/26 18:52 KCDJ 261852Z AUTO 31009G17KT 04/01 A2995 RMK AO1 SLP152 T00390006
 
KFNB - Falls City/Brenn, Nebraska, USA
Distance from station: NW 96mi, 154km
Updated: Wed, 26-Nov-2014 12:53pm CST
Overcast
Overcast
 Wind from NW
Wind: NW 22 mph , 35 km/h, Gust: 33 mph , 54 km/h
Temperature: 36°F , 2°C
Wind Chill: 25°F , -4°C
Dew Point: 28°F , -2°C
Humidity: 75%
Barometer: 30.05 inHg , 1017.6 hPa
Clouds: Overcast
Visibility: 10 miles , 16 km
Cloud details: Overcast 1500 ft
2014/11/26 18:53 KFNB 261853Z AUTO 31019G29KT 10SM OVC015 02/M02 A3005 RMK AO2 PK WND 31034/1803 SLP183 T00171022
KVER - Boonville, Missouri, USA
Distance from station: E 96mi, 154km
Updated: Wed, 26-Nov-2014 1:35pm CST
Overcast
Overcast
 Wind from W
Wind: W 10 mph , 17 km/h, Gust: 17 mph , 28 km/h
Temperature: 41°F , 5°C
Wind Chill: 35°F , 2°C
Dew Point: 34°F , 1°C
Humidity: 76%
Barometer: 29.95 inHg , 1014.2 hPa
Clouds: Overcast
Visibility: 10 miles , 16 km
Cloud details: Overcast 2200 ft
2014/11/26 19:35 KVER 261935Z AUTO 28009G15KT 10SM OVC022 05/01 A2995 RMK AO2 T00530011